sensor_id;sensor_type;location;lat;lon;timestamp;P1;durP1;ratioP1;P2;durP2;ratioP2
36629;SDS011;36256;42.154;23.002;2022-11-23T00:03:48;6.45;;;1.80;;
36629;SDS011;36256;42.154;23.002;2022-11-23T00:06:19;6.20;;;2.83;;
36629;SDS011;36256;42.154;23.002;2022-11-23T00:08:47;4.47;;;1.92;;
36629;SDS011;36256;42.154;23.002;2022-11-23T00:11:15;4.85;;;2.15;;
36629;SDS011;36256;42.154;23.002;2022-11-23T00:13:43;3.75;;;1.77;;
36629;SDS011;36256;42.154;23.002;2022-11-23T00:16:16;9.65;;;4.63;;
36629;SDS011;36256;42.154;23.002;2022-11-23T00:18:45;4.57;;;2.50;;
36629;SDS011;36256;42.154;23.002;2022-11-23T00:21:15;5.68;;;3.55;;
36629;SDS011;36256;42.154;23.002;2022-11-23T00:23:43;7.32;;;4.32;;
36629;SDS011;36256;42.154;23.002;2022-11-23T00:26:10;6.18;;;3.35;;
36629;SDS011;36256;42.154;23.002;2022-11-23T00:28:38;3.75;;;2.00;;
36629;SDS011;36256;42.154;23.002;2022-11-23T00:31:06;4.35;;;2.30;;
36629;SDS011;36256;42.154;23.002;2022-11-23T00:36:04;6.82;;;3.88;;
36629;SDS011;36256;42.154;23.002;2022-11-23T00:38:32;7.72;;;4.80;;
36629;SDS011;36256;42.154;23.002;2022-11-23T00:41:00;7.63;;;4.43;;
36629;SDS011;36256;42.154;23.002;2022-11-23T00:43:28;6.07;;;4.43;;
36629;SDS011;36256;42.154;23.002;2022-11-23T00:48:42;8.05;;;5.70;;
36629;SDS011;36256;42.154;23.002;2022-11-23T00:51:10;10.07;;;5.90;;
36629;SDS011;36256;42.154;23.002;2022-11-23T00:53:41;6.88;;;4.70;;
36629;SDS011;36256;42.154;23.002;2022-11-23T00:56:08;8.75;;;5.45;;
36629;SDS011;36256;42.154;23.002;2022-11-23T00:58:35;10.95;;;5.30;;
36629;SDS011;36256;42.154;23.002;2022-11-23T01:01:07;8.38;;;5.38;;
36629;SDS011;36256;42.154;23.002;2022-11-23T01:03:40;7.20;;;4.53;;
36629;SDS011;36256;42.154;23.002;2022-11-23T01:06:12;9.98;;;4.53;;
36629;SDS011;36256;42.154;23.002;2022-11-23T01:08:40;7.55;;;5.05;;
36629;SDS011;36256;42.154;23.002;2022-11-23T01:11:09;6.90;;;5.35;;
36629;SDS011;36256;42.154;23.002;2022-11-23T01:13:37;8.85;;;6.68;;
36629;SDS011;36256;42.154;23.002;2022-11-23T01:16:09;18.05;;;9.77;;
36629;SDS011;36256;42.154;23.002;2022-11-23T01:18:50;18.23;;;9.88;;
36629;SDS011;36256;42.154;23.002;2022-11-23T01:21:18;16.92;;;9.65;;
36629;SDS011;36256;42.154;23.002;2022-11-23T01:23:45;14.67;;;9.53;;
36629;SDS011;36256;42.154;23.002;2022-11-23T01:26:11;14.73;;;8.18;;
36629;SDS011;36256;42.154;23.002;2022-11-23T01:28:38;8.70;;;6.57;;
36629;SDS011;36256;42.154;23.002;2022-11-23T01:33:34;7.55;;;5.53;;
36629;SDS011;36256;42.154;23.002;2022-11-23T01:36:11;7.72;;;4.85;;
36629;SDS011;36256;42.154;23.002;2022-11-23T01:38:40;11.18;;;5.55;;
36629;SDS011;36256;42.154;23.002;2022-11-23T01:41:08;7.97;;;5.00;;
36629;SDS011;36256;42.154;23.002;2022-11-23T01:43:37;7.15;;;5.10;;
36629;SDS011;36256;42.154;23.002;2022-11-23T01:46:04;8.37;;;6.00;;
36629;SDS011;36256;42.154;23.002;2022-11-23T01:48:33;6.75;;;4.80;;
36629;SDS011;36256;42.154;23.002;2022-11-23T01:51:04;6.43;;;4.78;;
36629;SDS011;36256;42.154;23.002;2022-11-23T01:53:35;7.15;;;4.97;;
36629;SDS011;36256;42.154;23.002;2022-11-23T01:56:03;7.45;;;4.78;;
36629;SDS011;36256;42.154;23.002;2022-11-23T01:58:34;7.20;;;5.05;;
36629;SDS011;36256;42.154;23.002;2022-11-23T02:01:05;6.65;;;4.47;;
36629;SDS011;36256;42.154;23.002;2022-11-23T02:03:33;5.95;;;4.70;;
36629;SDS011;36256;42.154;23.002;2022-11-23T02:06:03;6.78;;;5.30;;
36629;SDS011;36256;42.154;23.002;2022-11-23T02:08:36;9.50;;;5.10;;
36629;SDS011;36256;42.154;23.002;2022-11-23T02:13:30;8.50;;;4.88;;
36629;SDS011;36256;42.154;23.002;2022-11-23T02:15:57;7.73;;;5.43;;
36629;SDS011;36256;42.154;23.002;2022-11-23T02:20:53;10.07;;;5.18;;
36629;SDS011;36256;42.154;23.002;2022-11-23T02:26:26;9.70;;;6.03;;
36629;SDS011;36256;42.154;23.002;2022-11-23T02:31:30;10.15;;;6.00;;
36629;SDS011;36256;42.154;23.002;2022-11-23T02:33:57;7.13;;;5.85;;
36629;SDS011;36256;42.154;23.002;2022-11-23T02:38:59;8.93;;;5.35;;
36629;SDS011;36256;42.154;23.002;2022-11-23T02:41:37;8.70;;;6.53;;
36629;SDS011;36256;42.154;23.002;2022-11-23T02:44:06;9.10;;;6.60;;
36629;SDS011;36256;42.154;23.002;2022-11-23T02:46:38;9.50;;;6.10;;
36629;SDS011;36256;42.154;23.002;2022-11-23T02:49:05;8.15;;;6.03;;
36629;SDS011;36256;42.154;23.002;2022-11-23T02:51:32;15.00;;;9.37;;
36629;SDS011;36256;42.154;23.002;2022-11-23T02:53:58;33.73;;;18.97;;
36629;SDS011;36256;42.154;23.002;2022-11-23T02:56:25;28.50;;;16.73;;
36629;SDS011;36256;42.154;23.002;2022-11-23T02:58:52;84.68;;;40.25;;
36629;SDS011;36256;42.154;23.002;2022-11-23T03:01:19;38.73;;;19.60;;
36629;SDS011;36256;42.154;23.002;2022-11-23T03:03:45;23.42;;;13.07;;
36629;SDS011;36256;42.154;23.002;2022-11-23T03:06:12;11.77;;;8.10;;
36629;SDS011;36256;42.154;23.002;2022-11-23T03:08:38;10.63;;;6.60;;
36629;SDS011;36256;42.154;23.002;2022-11-23T03:11:05;9.60;;;6.00;;
36629;SDS011;36256;42.154;23.002;2022-11-23T03:13:31;9.77;;;6.93;;
36629;SDS011;36256;42.154;23.002;2022-11-23T03:15:58;9.67;;;6.83;;
36629;SDS011;36256;42.154;23.002;2022-11-23T03:18:24;8.70;;;6.37;;
36629;SDS011;36256;42.154;23.002;2022-11-23T03:20:51;6.03;;;5.43;;
36629;SDS011;36256;42.154;23.002;2022-11-23T03:23:18;8.70;;;5.75;;
36629;SDS011;36256;42.154;23.002;2022-11-23T03:25:44;9.63;;;6.28;;
36629;SDS011;36256;42.154;23.002;2022-11-23T03:28:11;8.63;;;5.80;;
36629;SDS011;36256;42.154;23.002;2022-11-23T03:30:37;7.97;;;6.13;;
36629;SDS011;36256;42.154;23.002;2022-11-23T03:33:04;7.70;;;5.90;;
36629;SDS011;36256;42.154;23.002;2022-11-23T03:35:30;10.23;;;6.60;;
36629;SDS011;36256;42.154;23.002;2022-11-23T03:37:57;10.97;;;6.03;;
36629;SDS011;36256;42.154;23.002;2022-11-23T03:40:23;9.65;;;5.75;;
36629;SDS011;36256;42.154;23.002;2022-11-23T03:42:50;8.47;;;6.40;;
36629;SDS011;36256;42.154;23.002;2022-11-23T03:45:16;10.23;;;6.07;;
36629;SDS011;36256;42.154;23.002;2022-11-23T03:47:43;10.40;;;6.70;;
36629;SDS011;36256;42.154;23.002;2022-11-23T03:50:10;7.78;;;6.53;;
36629;SDS011;36256;42.154;23.002;2022-11-23T03:52:36;9.95;;;7.22;;
36629;SDS011;36256;42.154;23.002;2022-11-23T03:55:03;8.20;;;6.05;;
36629;SDS011;36256;42.154;23.002;2022-11-23T03:57:30;8.60;;;6.25;;
36629;SDS011;36256;42.154;23.002;2022-11-23T03:59:57;8.10;;;5.73;;
36629;SDS011;36256;42.154;23.002;2022-11-23T04:02:23;7.47;;;6.57;;
36629;SDS011;36256;42.154;23.002;2022-11-23T04:04:50;7.77;;;6.13;;
36629;SDS011;36256;42.154;23.002;2022-11-23T04:07:16;10.13;;;7.05;;
36629;SDS011;36256;42.154;23.002;2022-11-23T04:09:43;10.73;;;7.28;;
36629;SDS011;36256;42.154;23.002;2022-11-23T04:12:10;10.57;;;6.90;;
36629;SDS011;36256;42.154;23.002;2022-11-23T04:14:36;10.37;;;7.73;;
36629;SDS011;36256;42.154;23.002;2022-11-23T04:17:03;13.73;;;8.73;;
36629;SDS011;36256;42.154;23.002;2022-11-23T04:19:29;14.50;;;7.87;;
36629;SDS011;36256;42.154;23.002;2022-11-23T04:21:56;14.60;;;10.68;;
36629;SDS011;36256;42.154;23.002;2022-11-23T04:24:23;12.40;;;8.18;;
36629;SDS011;36256;42.154;23.002;2022-11-23T04:26:50;11.50;;;8.73;;
36629;SDS011;36256;42.154;23.002;2022-11-23T04:29:16;16.20;;;9.63;;
36629;SDS011;36256;42.154;23.002;2022-11-23T04:31:43;14.17;;;10.10;;
36629;SDS011;36256;42.154;23.002;2022-11-23T04:34:09;16.90;;;9.80;;
36629;SDS011;36256;42.154;23.002;2022-11-23T04:36:36;14.27;;;9.88;;
36629;SDS011;36256;42.154;23.002;2022-11-23T04:39:03;13.00;;;8.88;;
36629;SDS011;36256;42.154;23.002;2022-11-23T04:41:29;11.68;;;8.25;;
36629;SDS011;36256;42.154;23.002;2022-11-23T04:43:56;13.40;;;8.37;;
36629;SDS011;36256;42.154;23.002;2022-11-23T04:46:23;10.75;;;8.75;;
36629;SDS011;36256;42.154;23.002;2022-11-23T04:48:49;10.93;;;8.83;;
36629;SDS011;36256;42.154;23.002;2022-11-23T04:51:16;12.15;;;9.57;;
36629;SDS011;36256;42.154;23.002;2022-11-23T04:53:42;13.13;;;8.68;;
36629;SDS011;36256;42.154;23.002;2022-11-23T04:56:09;11.68;;;8.02;;
36629;SDS011;36256;42.154;23.002;2022-11-23T04:58:35;13.27;;;9.20;;
36629;SDS011;36256;42.154;23.002;2022-11-23T05:01:02;11.70;;;9.93;;
36629;SDS011;36256;42.154;23.002;2022-11-23T05:05:57;11.77;;;7.97;;
36629;SDS011;36256;42.154;23.002;2022-11-23T05:10:50;12.98;;;9.38;;
36629;SDS011;36256;42.154;23.002;2022-11-23T05:13:17;13.63;;;9.77;;
36629;SDS011;36256;42.154;23.002;2022-11-23T05:15:43;13.30;;;8.60;;
36629;SDS011;36256;42.154;23.002;2022-11-23T05:18:10;12.93;;;10.17;;
36629;SDS011;36256;42.154;23.002;2022-11-23T05:20:37;7.38;;;5.97;;
36629;SDS011;36256;42.154;23.002;2022-11-23T05:23:03;9.57;;;6.22;;
36629;SDS011;36256;42.154;23.002;2022-11-23T05:25:30;8.65;;;5.95;;
36629;SDS011;36256;42.154;23.002;2022-11-23T05:27:57;6.75;;;5.57;;
36629;SDS011;36256;42.154;23.002;2022-11-23T05:30:36;6.28;;;4.93;;
36629;SDS011;36256;42.154;23.002;2022-11-23T05:33:02;7.00;;;5.50;;
36629;SDS011;36256;42.154;23.002;2022-11-23T05:35:29;8.98;;;6.78;;
36629;SDS011;36256;42.154;23.002;2022-11-23T05:37:56;6.78;;;4.97;;
36629;SDS011;36256;42.154;23.002;2022-11-23T05:40:22;6.05;;;4.25;;
36629;SDS011;36256;42.154;23.002;2022-11-23T05:42:53;5.93;;;4.50;;
36629;SDS011;36256;42.154;23.002;2022-11-23T05:45:21;6.18;;;4.72;;
36629;SDS011;36256;42.154;23.002;2022-11-23T05:47:51;8.68;;;5.75;;
36629;SDS011;36256;42.154;23.002;2022-11-23T05:50:19;8.60;;;5.88;;
36629;SDS011;36256;42.154;23.002;2022-11-23T05:52:47;7.88;;;4.43;;
36629;SDS011;36256;42.154;23.002;2022-11-23T05:55:14;5.43;;;4.90;;
36629;SDS011;36256;42.154;23.002;2022-11-23T05:57:41;4.50;;;3.95;;
36629;SDS011;36256;42.154;23.002;2022-11-23T06:00:08;7.57;;;5.43;;
36629;SDS011;36256;42.154;23.002;2022-11-23T06:02:36;8.98;;;6.25;;
36629;SDS011;36256;42.154;23.002;2022-11-23T06:05:06;12.13;;;7.85;;
36629;SDS011;36256;42.154;23.002;2022-11-23T06:07:34;6.93;;;4.90;;
36629;SDS011;36256;42.154;23.002;2022-11-23T06:10:01;7.35;;;4.38;;
36629;SDS011;36256;42.154;23.002;2022-11-23T06:12:28;3.47;;;3.10;;
36629;SDS011;36256;42.154;23.002;2022-11-23T06:14:55;7.53;;;4.03;;
36629;SDS011;36256;42.154;23.002;2022-11-23T06:17:25;6.60;;;4.37;;
36629;SDS011;36256;42.154;23.002;2022-11-23T06:19:51;4.65;;;3.80;;
36629;SDS011;36256;42.154;23.002;2022-11-23T06:22:18;5.63;;;3.20;;
36629;SDS011;36256;42.154;23.002;2022-11-23T06:24:44;6.07;;;3.47;;
36629;SDS011;36256;42.154;23.002;2022-11-23T06:27:11;5.60;;;4.10;;
36629;SDS011;36256;42.154;23.002;2022-11-23T06:29:43;4.47;;;3.55;;
36629;SDS011;36256;42.154;23.002;2022-11-23T06:32:10;4.18;;;3.00;;
36629;SDS011;36256;42.154;23.002;2022-11-23T06:34:36;3.77;;;3.00;;
36629;SDS011;36256;42.154;23.002;2022-11-23T06:37:03;6.47;;;3.07;;
36629;SDS011;36256;42.154;23.002;2022-11-23T06:39:29;5.90;;;3.03;;
36629;SDS011;36256;42.154;23.002;2022-11-23T06:41:57;8.02;;;2.60;;
36629;SDS011;36256;42.154;23.002;2022-11-23T06:44:43;2.95;;;2.58;;
36629;SDS011;36256;42.154;23.002;2022-11-23T06:47:10;4.70;;;2.70;;
36629;SDS011;36256;42.154;23.002;2022-11-23T06:49:42;6.28;;;5.38;;
36629;SDS011;36256;42.154;23.002;2022-11-23T06:52:08;6.23;;;5.27;;
36629;SDS011;36256;42.154;23.002;2022-11-23T06:54:35;5.27;;;4.77;;
36629;SDS011;36256;42.154;23.002;2022-11-23T06:57:02;7.13;;;5.00;;
36629;SDS011;36256;42.154;23.002;2022-11-23T06:59:28;8.90;;;4.97;;
36629;SDS011;36256;42.154;23.002;2022-11-23T07:01:55;5.47;;;3.90;;
36629;SDS011;36256;42.154;23.002;2022-11-23T07:04:22;5.22;;;3.72;;
36629;SDS011;36256;42.154;23.002;2022-11-23T07:06:48;8.33;;;4.23;;
36629;SDS011;36256;42.154;23.002;2022-11-23T07:09:15;7.23;;;4.20;;
36629;SDS011;36256;42.154;23.002;2022-11-23T07:11:41;4.83;;;3.50;;
36629;SDS011;36256;42.154;23.002;2022-11-23T07:14:09;5.35;;;3.13;;
36629;SDS011;36256;42.154;23.002;2022-11-23T07:16:35;5.13;;;3.60;;
36629;SDS011;36256;42.154;23.002;2022-11-23T07:19:02;10.65;;;5.78;;
36629;SDS011;36256;42.154;23.002;2022-11-23T07:21:28;8.57;;;5.30;;
36629;SDS011;36256;42.154;23.002;2022-11-23T07:23:55;7.07;;;4.70;;
36629;SDS011;36256;42.154;23.002;2022-11-23T07:26:21;6.67;;;4.53;;
36629;SDS011;36256;42.154;23.002;2022-11-23T07:28:48;8.07;;;4.83;;
36629;SDS011;36256;42.154;23.002;2022-11-23T07:31:15;13.63;;;7.93;;
36629;SDS011;36256;42.154;23.002;2022-11-23T07:33:44;10.90;;;6.20;;
36629;SDS011;36256;42.154;23.002;2022-11-23T07:36:11;5.68;;;4.55;;
36629;SDS011;36256;42.154;23.002;2022-11-23T07:38:39;4.95;;;3.60;;
36629;SDS011;36256;42.154;23.002;2022-11-23T07:41:05;4.00;;;3.37;;
36629;SDS011;36256;42.154;23.002;2022-11-23T07:43:33;5.57;;;3.17;;
36629;SDS011;36256;42.154;23.002;2022-11-23T07:46:00;5.50;;;4.50;;
36629;SDS011;36256;42.154;23.002;2022-11-23T07:48:26;8.33;;;5.33;;
36629;SDS011;36256;42.154;23.002;2022-11-23T07:51:01;9.90;;;6.85;;
36629;SDS011;36256;42.154;23.002;2022-11-23T07:53:27;13.10;;;7.43;;
36629;SDS011;36256;42.154;23.002;2022-11-23T07:55:55;14.17;;;9.50;;
36629;SDS011;36256;42.154;23.002;2022-11-23T07:58:23;6.15;;;3.72;;
36629;SDS011;36256;42.154;23.002;2022-11-23T08:00:49;5.38;;;2.85;;
36629;SDS011;36256;42.154;23.002;2022-11-23T08:03:16;4.10;;;2.55;;
36629;SDS011;36256;42.154;23.002;2022-11-23T08:05:59;6.68;;;3.47;;
36629;SDS011;36256;42.154;23.002;2022-11-23T08:08:25;6.07;;;2.37;;
36629;SDS011;36256;42.154;23.002;2022-11-23T08:10:52;7.57;;;2.20;;
36629;SDS011;36256;42.154;23.002;2022-11-23T08:13:20;9.23;;;2.70;;
36629;SDS011;36256;42.154;23.002;2022-11-23T08:15:47;3.78;;;1.80;;
36629;SDS011;36256;42.154;23.002;2022-11-23T08:18:20;3.95;;;1.63;;
36629;SDS011;36256;42.154;23.002;2022-11-23T08:20:48;4.90;;;2.20;;
36629;SDS011;36256;42.154;23.002;2022-11-23T08:23:15;4.20;;;2.20;;
36629;SDS011;36256;42.154;23.002;2022-11-23T08:25:41;5.35;;;3.00;;
36629;SDS011;36256;42.154;23.002;2022-11-23T08:28:08;5.03;;;2.85;;
36629;SDS011;36256;42.154;23.002;2022-11-23T08:30:35;10.90;;;4.95;;
36629;SDS011;36256;42.154;23.002;2022-11-23T08:33:05;4.55;;;1.85;;
36629;SDS011;36256;42.154;23.002;2022-11-23T08:35:33;4.32;;;1.80;;
36629;SDS011;36256;42.154;23.002;2022-11-23T08:38:02;6.13;;;1.92;;
36629;SDS011;36256;42.154;23.002;2022-11-23T08:40:29;3.80;;;1.35;;
36629;SDS011;36256;42.154;23.002;2022-11-23T08:42:56;2.25;;;1.40;;
36629;SDS011;36256;42.154;23.002;2022-11-23T08:45:23;4.50;;;1.63;;
36629;SDS011;36256;42.154;23.002;2022-11-23T08:47:50;2.42;;;1.20;;
36629;SDS011;36256;42.154;23.002;2022-11-23T08:50:16;7.00;;;1.80;;
36629;SDS011;36256;42.154;23.002;2022-11-23T08:52:43;6.10;;;1.65;;
36629;SDS011;36256;42.154;23.002;2022-11-23T08:55:10;4.60;;;1.60;;
36629;SDS011;36256;42.154;23.002;2022-11-23T08:57:37;2.88;;;1.35;;
36629;SDS011;36256;42.154;23.002;2022-11-23T09:00:04;3.38;;;1.42;;
36629;SDS011;36256;42.154;23.002;2022-11-23T09:04:58;4.55;;;1.75;;
36629;SDS011;36256;42.154;23.002;2022-11-23T09:07:25;4.38;;;1.40;;
36629;SDS011;36256;42.154;23.002;2022-11-23T09:09:52;6.00;;;1.95;;
36629;SDS011;36256;42.154;23.002;2022-11-23T09:12:18;6.60;;;1.40;;
36629;SDS011;36256;42.154;23.002;2022-11-23T09:14:45;4.80;;;1.30;;
36629;SDS011;36256;42.154;23.002;2022-11-23T09:17:12;5.38;;;1.42;;
36629;SDS011;36256;42.154;23.002;2022-11-23T09:19:38;4.53;;;1.50;;
36629;SDS011;36256;42.154;23.002;2022-11-23T09:22:05;6.13;;;2.15;;
36629;SDS011;36256;42.154;23.002;2022-11-23T09:24:32;6.38;;;1.85;;
36629;SDS011;36256;42.154;23.002;2022-11-23T09:26:59;3.47;;;1.42;;
36629;SDS011;36256;42.154;23.002;2022-11-23T09:29:26;5.63;;;1.33;;
36629;SDS011;36256;42.154;23.002;2022-11-23T09:31:53;2.95;;;1.30;;
36629;SDS011;36256;42.154;23.002;2022-11-23T09:34:19;3.80;;;1.73;;
36629;SDS011;36256;42.154;23.002;2022-11-23T09:36:46;6.88;;;3.17;;
36629;SDS011;36256;42.154;23.002;2022-11-23T09:39:13;3.35;;;1.00;;
36629;SDS011;36256;42.154;23.002;2022-11-23T09:52:21;3.17;;;0.98;;
36629;SDS011;36256;42.154;23.002;2022-11-23T09:54:50;3.63;;;1.20;;
36629;SDS011;36256;42.154;23.002;2022-11-23T09:57:23;2.22;;;0.95;;
36629;SDS011;36256;42.154;23.002;2022-11-23T10:02:52;2.97;;;1.10;;
36629;SDS011;36256;42.154;23.002;2022-11-23T10:05:20;5.47;;;0.98;;
36629;SDS011;36256;42.154;23.002;2022-11-23T10:10:58;5.57;;;1.30;;
36629;SDS011;36256;42.154;23.002;2022-11-23T10:13:33;5.72;;;1.00;;
36629;SDS011;36256;42.154;23.002;2022-11-23T10:18:57;3.25;;;1.23;;
36629;SDS011;36256;42.154;23.002;2022-11-23T10:22:04;3.33;;;1.20;;
36629;SDS011;36256;42.154;23.002;2022-11-23T10:24:32;4.78;;;0.90;;
36629;SDS011;36256;42.154;23.002;2022-11-23T10:27:05;5.88;;;1.30;;
36629;SDS011;36256;42.154;23.002;2022-11-23T10:29:39;4.85;;;0.85;;
36629;SDS011;36256;42.154;23.002;2022-11-23T10:37:39;3.15;;;0.95;;
36629;SDS011;36256;42.154;23.002;2022-11-23T10:40:22;4.90;;;1.20;;
36629;SDS011;36256;42.154;23.002;2022-11-23T10:42:58;6.28;;;1.10;;
36629;SDS011;36256;42.154;23.002;2022-11-23T10:45:30;4.18;;;0.98;;
36629;SDS011;36256;42.154;23.002;2022-11-23T10:47:57;6.87;;;1.50;;
36629;SDS011;36256;42.154;23.002;2022-11-23T10:50:26;3.03;;;0.85;;
36629;SDS011;36256;42.154;23.002;2022-11-23T10:52:59;4.05;;;1.15;;
36629;SDS011;36256;42.154;23.002;2022-11-23T10:55:51;3.05;;;1.15;;
36629;SDS011;36256;42.154;23.002;2022-11-23T10:58:27;4.75;;;1.10;;
36629;SDS011;36256;42.154;23.002;2022-11-23T11:01:00;3.15;;;0.70;;
36629;SDS011;36256;42.154;23.002;2022-11-23T11:03:37;5.90;;;1.98;;
36629;SDS011;36256;42.154;23.002;2022-11-23T11:06:04;8.50;;;0.70;;
36629;SDS011;36256;42.154;23.002;2022-11-23T11:08:46;1.25;;;0.52;;
36629;SDS011;36256;42.154;23.002;2022-11-23T11:11:27;2.95;;;1.75;;
36629;SDS011;36256;42.154;23.002;2022-11-23T11:14:00;7.88;;;2.88;;
36629;SDS011;36256;42.154;23.002;2022-11-23T11:16:29;5.32;;;1.85;;
36629;SDS011;36256;42.154;23.002;2022-11-23T11:18:59;5.63;;;1.88;;
36629;SDS011;36256;42.154;23.002;2022-11-23T11:21:46;3.80;;;0.85;;
36629;SDS011;36256;42.154;23.002;2022-11-23T11:24:14;14.17;;;5.03;;
36629;SDS011;36256;42.154;23.002;2022-11-23T11:26:57;15.55;;;8.50;;
36629;SDS011;36256;42.154;23.002;2022-11-23T11:29:31;9.70;;;4.97;;
36629;SDS011;36256;42.154;23.002;2022-11-23T11:32:05;4.88;;;2.05;;
36629;SDS011;36256;42.154;23.002;2022-11-23T11:35:31;3.80;;;2.00;;
36629;SDS011;36256;42.154;23.002;2022-11-23T11:37:59;8.73;;;4.35;;
36629;SDS011;36256;42.154;23.002;2022-11-23T11:40:52;7.65;;;3.22;;
36629;SDS011;36256;42.154;23.002;2022-11-23T11:43:20;4.53;;;2.60;;
36629;SDS011;36256;42.154;23.002;2022-11-23T11:46:07;6.13;;;3.28;;
36629;SDS011;36256;42.154;23.002;2022-11-23T11:48:55;4.50;;;1.88;;
36629;SDS011;36256;42.154;23.002;2022-11-23T11:51:31;7.55;;;4.10;;
36629;SDS011;36256;42.154;23.002;2022-11-23T11:56:58;4.22;;;1.20;;
36629;SDS011;36256;42.154;23.002;2022-11-23T11:59:34;2.22;;;0.82;;
36629;SDS011;36256;42.154;23.002;2022-11-23T12:05:15;5.00;;;2.20;;
36629;SDS011;36256;42.154;23.002;2022-11-23T12:10:14;4.88;;;1.98;;
36629;SDS011;36256;42.154;23.002;2022-11-23T12:12:45;2.65;;;0.90;;
36629;SDS011;36256;42.154;23.002;2022-11-23T12:15:17;4.88;;;1.60;;
36629;SDS011;36256;42.154;23.002;2022-11-23T12:32:10;5.97;;;1.80;;
36629;SDS011;36256;42.154;23.002;2022-11-23T12:34:55;3.88;;;1.52;;
36629;SDS011;36256;42.154;23.002;2022-11-23T12:40:23;3.90;;;1.30;;
36629;SDS011;36256;42.154;23.002;2022-11-23T12:43:04;4.22;;;1.90;;
36629;SDS011;36256;42.154;23.002;2022-11-23T12:48:52;4.13;;;1.65;;
36629;SDS011;36256;42.154;23.002;2022-11-23T12:57:23;4.32;;;1.20;;
36629;SDS011;36256;42.154;23.002;2022-11-23T12:59:55;6.57;;;1.77;;
36629;SDS011;36256;42.154;23.002;2022-11-23T13:23:38;7.07;;;3.88;;
36629;SDS011;36256;42.154;23.002;2022-11-23T13:28:37;5.22;;;1.90;;
36629;SDS011;36256;42.154;23.002;2022-11-23T13:31:17;3.53;;;1.60;;
36629;SDS011;36256;42.154;23.002;2022-11-23T13:33:49;2.88;;;1.45;;
36629;SDS011;36256;42.154;23.002;2022-11-23T13:42:07;3.17;;;1.35;;
36629;SDS011;36256;42.154;23.002;2022-11-23T13:44:36;3.33;;;1.30;;
36629;SDS011;36256;42.154;23.002;2022-11-23T13:47:16;1.65;;;0.90;;
36629;SDS011;36256;42.154;23.002;2022-11-23T13:49:46;4.75;;;1.65;;
36629;SDS011;36256;42.154;23.002;2022-11-23T13:54:59;4.97;;;2.00;;
36629;SDS011;36256;42.154;23.002;2022-11-23T13:57:42;4.93;;;2.30;;
36629;SDS011;36256;42.154;23.002;2022-11-23T14:04:17;6.38;;;3.58;;
36629;SDS011;36256;42.154;23.002;2022-11-23T14:08:45;10.85;;;2.85;;
36629;SDS011;36256;42.154;23.002;2022-11-23T14:11:17;6.85;;;4.22;;
36629;SDS011;36256;42.154;23.002;2022-11-23T14:13:50;11.15;;;4.88;;
36629;SDS011;36256;42.154;23.002;2022-11-23T14:19:16;5.18;;;2.60;;
36629;SDS011;36256;42.154;23.002;2022-11-23T14:21:54;3.97;;;2.15;;
36629;SDS011;36256;42.154;23.002;2022-11-23T14:24:34;3.42;;;1.85;;
36629;SDS011;36256;42.154;23.002;2022-11-23T14:35:51;6.15;;;2.92;;
36629;SDS011;36256;42.154;23.002;2022-11-23T14:43:18;4.38;;;2.17;;
36629;SDS011;36256;42.154;23.002;2022-11-23T14:45:45;4.85;;;1.92;;
36629;SDS011;36256;42.154;23.002;2022-11-23T14:48:20;11.88;;;3.92;;
36629;SDS011;36256;42.154;23.002;2022-11-23T14:50:57;2.85;;;1.00;;
36629;SDS011;36256;42.154;23.002;2022-11-23T14:53:32;2.92;;;1.23;;
36629;SDS011;36256;42.154;23.002;2022-11-23T14:56:01;5.13;;;2.40;;
36629;SDS011;36256;42.154;23.002;2022-11-23T14:58:29;4.30;;;1.50;;
36629;SDS011;36256;42.154;23.002;2022-11-23T15:01:01;9.65;;;4.55;;
36629;SDS011;36256;42.154;23.002;2022-11-23T15:03:30;4.45;;;1.90;;
36629;SDS011;36256;42.154;23.002;2022-11-23T15:06:15;3.65;;;1.55;;
36629;SDS011;36256;42.154;23.002;2022-11-23T15:08:48;5.25;;;1.90;;
36629;SDS011;36256;42.154;23.002;2022-11-23T15:11:28;3.53;;;1.40;;
36629;SDS011;36256;42.154;23.002;2022-11-23T15:13:58;4.82;;;1.77;;
36629;SDS011;36256;42.154;23.002;2022-11-23T15:16:27;2.92;;;1.48;;
36629;SDS011;36256;42.154;23.002;2022-11-23T15:18:55;6.57;;;2.95;;
36629;SDS011;36256;42.154;23.002;2022-11-23T15:21:23;5.50;;;1.63;;
36629;SDS011;36256;42.154;23.002;2022-11-23T15:23:56;8.38;;;3.38;;
36629;SDS011;36256;42.154;23.002;2022-11-23T15:26:25;9.20;;;4.90;;
36629;SDS011;36256;42.154;23.002;2022-11-23T15:32:18;2.70;;;1.50;;
36629;SDS011;36256;42.154;23.002;2022-11-23T15:34:59;6.32;;;1.73;;
36629;SDS011;36256;42.154;23.002;2022-11-23T15:37:37;6.50;;;1.80;;
36629;SDS011;36256;42.154;23.002;2022-11-23T15:40:11;11.90;;;4.82;;
36629;SDS011;36256;42.154;23.002;2022-11-23T15:42:42;5.47;;;2.00;;
36629;SDS011;36256;42.154;23.002;2022-11-23T15:48:04;14.20;;;9.23;;
36629;SDS011;36256;42.154;23.002;2022-11-23T15:51:18;23.58;;;11.75;;
36629;SDS011;36256;42.154;23.002;2022-11-23T15:53:44;10.68;;;5.00;;
36629;SDS011;36256;42.154;23.002;2022-11-23T15:56:18;8.95;;;5.63;;
36629;SDS011;36256;42.154;23.002;2022-11-23T15:58:54;10.27;;;6.07;;
36629;SDS011;36256;42.154;23.002;2022-11-23T16:01:23;15.93;;;9.27;;
36629;SDS011;36256;42.154;23.002;2022-11-23T16:03:54;17.42;;;11.07;;
36629;SDS011;36256;42.154;23.002;2022-11-23T16:06:34;20.92;;;11.45;;
36629;SDS011;36256;42.154;23.002;2022-11-23T16:09:31;16.80;;;10.75;;
36629;SDS011;36256;42.154;23.002;2022-11-23T16:12:29;24.75;;;12.93;;
36629;SDS011;36256;42.154;23.002;2022-11-23T16:14:57;27.90;;;15.55;;
36629;SDS011;36256;42.154;23.002;2022-11-23T16:17:43;19.98;;;10.57;;
36629;SDS011;36256;42.154;23.002;2022-11-23T16:20:11;27.35;;;16.17;;
36629;SDS011;36256;42.154;23.002;2022-11-23T16:22:41;25.08;;;14.52;;
36629;SDS011;36256;42.154;23.002;2022-11-23T16:28:02;27.83;;;17.30;;
36629;SDS011;36256;42.154;23.002;2022-11-23T16:30:41;24.83;;;13.98;;
36629;SDS011;36256;42.154;23.002;2022-11-23T16:33:13;22.42;;;10.50;;
36629;SDS011;36256;42.154;23.002;2022-11-23T16:35:41;16.33;;;9.45;;
36629;SDS011;36256;42.154;23.002;2022-11-23T16:38:08;20.90;;;10.90;;
36629;SDS011;36256;42.154;23.002;2022-11-23T16:40:35;17.80;;;8.70;;
36629;SDS011;36256;42.154;23.002;2022-11-23T16:43:01;8.40;;;4.00;;
36629;SDS011;36256;42.154;23.002;2022-11-23T16:45:29;18.95;;;7.65;;
36629;SDS011;36256;42.154;23.002;2022-11-23T16:48:00;22.35;;;11.30;;
36629;SDS011;36256;42.154;23.002;2022-11-23T16:50:28;21.08;;;10.52;;
36629;SDS011;36256;42.154;23.002;2022-11-23T16:53:00;23.45;;;9.48;;
36629;SDS011;36256;42.154;23.002;2022-11-23T16:58:08;14.95;;;8.13;;
36629;SDS011;36256;42.154;23.002;2022-11-23T17:00:40;18.42;;;9.07;;
36629;SDS011;36256;42.154;23.002;2022-11-23T17:03:13;17.58;;;8.05;;
36629;SDS011;36256;42.154;23.002;2022-11-23T17:05:44;24.35;;;11.55;;
36629;SDS011;36256;42.154;23.002;2022-11-23T17:08:11;14.80;;;8.48;;
36629;SDS011;36256;42.154;23.002;2022-11-23T17:10:45;11.82;;;6.25;;
36629;SDS011;36256;42.154;23.002;2022-11-23T17:13:19;12.85;;;6.25;;
36629;SDS011;36256;42.154;23.002;2022-11-23T17:15:49;9.05;;;5.10;;
36629;SDS011;36256;42.154;23.002;2022-11-23T17:18:16;10.02;;;5.93;;
36629;SDS011;36256;42.154;23.002;2022-11-23T17:20:43;12.50;;;5.90;;
36629;SDS011;36256;42.154;23.002;2022-11-23T17:23:10;9.85;;;5.60;;
36629;SDS011;36256;42.154;23.002;2022-11-23T17:25:37;15.52;;;6.72;;